sensor_id;sensor_type;location;lat;lon;timestamp;P1;durP1;ratioP1;P2;durP2;ratioP2
48651;SDS011;34442;52.362;-1.302;2023-04-16T00:01:20;2.42;;;1.55;;
48651;SDS011;34442;52.362;-1.302;2023-04-16T00:03:45;2.75;;;1.52;;
48651;SDS011;34442;52.362;-1.302;2023-04-16T00:06:10;2.20;;;1.58;;
48651;SDS011;34442;52.362;-1.302;2023-04-16T00:08:36;2.35;;;1.42;;
48651;SDS011;34442;52.362;-1.302;2023-04-16T00:11:02;2.70;;;1.70;;
48651;SDS011;34442;52.362;-1.302;2023-04-16T00:13:27;2.85;;;1.40;;
48651;SDS011;34442;52.362;-1.302;2023-04-16T00:15:53;2.90;;;1.73;;
48651;SDS011;34442;52.362;-1.302;2023-04-16T00:18:21;2.50;;;1.30;;
48651;SDS011;34442;52.362;-1.302;2023-04-16T00:20:47;2.85;;;1.67;;
48651;SDS011;34442;52.362;-1.302;2023-04-16T00:23:13;3.13;;;1.63;;
48651;SDS011;34442;52.362;-1.302;2023-04-16T00:25:38;2.72;;;1.60;;
48651;SDS011;34442;52.362;-1.302;2023-04-16T00:28:04;2.53;;;1.52;;
48651;SDS011;34442;52.362;-1.302;2023-04-16T00:30:30;2.38;;;1.60;;
48651;SDS011;34442;52.362;-1.302;2023-04-16T00:32:55;3.28;;;1.80;;
48651;SDS011;34442;52.362;-1.302;2023-04-16T00:35:20;3.03;;;1.60;;
48651;SDS011;34442;52.362;-1.302;2023-04-16T00:37:46;2.75;;;1.65;;
48651;SDS011;34442;52.362;-1.302;2023-04-16T00:40:11;2.10;;;1.33;;
48651;SDS011;34442;52.362;-1.302;2023-04-16T00:42:37;2.95;;;1.70;;
48651;SDS011;34442;52.362;-1.302;2023-04-16T00:45:03;2.28;;;1.23;;
48651;SDS011;34442;52.362;-1.302;2023-04-16T00:47:29;2.97;;;1.80;;
48651;SDS011;34442;52.362;-1.302;2023-04-16T00:49:55;2.42;;;1.27;;
48651;SDS011;34442;52.362;-1.302;2023-04-16T00:52:21;3.53;;;1.80;;
48651;SDS011;34442;52.362;-1.302;2023-04-16T00:54:46;2.67;;;1.50;;
48651;SDS011;34442;52.362;-1.302;2023-04-16T00:57:13;1.92;;;1.20;;
48651;SDS011;34442;52.362;-1.302;2023-04-16T00:59:39;2.97;;;1.85;;
48651;SDS011;34442;52.362;-1.302;2023-04-16T01:02:05;2.10;;;1.45;;
48651;SDS011;34442;52.362;-1.302;2023-04-16T01:04:31;2.45;;;1.40;;
48651;SDS011;34442;52.362;-1.302;2023-04-16T01:06:57;3.20;;;1.73;;
48651;SDS011;34442;52.362;-1.302;2023-04-16T01:09:23;3.20;;;1.50;;
48651;SDS011;34442;52.362;-1.302;2023-04-16T01:11:49;2.90;;;1.70;;
48651;SDS011;34442;52.362;-1.302;2023-04-16T01:14:14;3.33;;;1.70;;
48651;SDS011;34442;52.362;-1.302;2023-04-16T01:16:40;3.67;;;1.90;;
48651;SDS011;34442;52.362;-1.302;2023-04-16T01:19:05;2.53;;;1.70;;
48651;SDS011;34442;52.362;-1.302;2023-04-16T01:21:30;3.28;;;1.77;;
48651;SDS011;34442;52.362;-1.302;2023-04-16T01:23:56;2.85;;;1.65;;
48651;SDS011;34442;52.362;-1.302;2023-04-16T01:26:29;3.17;;;1.63;;
48651;SDS011;34442;52.362;-1.302;2023-04-16T01:28:55;2.78;;;1.50;;
48651;SDS011;34442;52.362;-1.302;2023-04-16T01:31:20;2.90;;;1.70;;
48651;SDS011;34442;52.362;-1.302;2023-04-16T01:33:46;3.22;;;1.65;;
48651;SDS011;34442;52.362;-1.302;2023-04-16T01:36:11;3.38;;;1.80;;
48651;SDS011;34442;52.362;-1.302;2023-04-16T01:38:36;3.97;;;2.08;;
48651;SDS011;34442;52.362;-1.302;2023-04-16T01:41:02;3.65;;;1.90;;
48651;SDS011;34442;52.362;-1.302;2023-04-16T01:43:27;3.90;;;2.22;;
48651;SDS011;34442;52.362;-1.302;2023-04-16T01:45:56;4.35;;;2.03;;
48651;SDS011;34442;52.362;-1.302;2023-04-16T01:48:35;3.45;;;2.05;;
48651;SDS011;34442;52.362;-1.302;2023-04-16T01:51:00;2.72;;;1.60;;
48651;SDS011;34442;52.362;-1.302;2023-04-16T01:53:26;3.85;;;2.35;;
48651;SDS011;34442;52.362;-1.302;2023-04-16T01:55:51;3.13;;;1.90;;
48651;SDS011;34442;52.362;-1.302;2023-04-16T01:58:16;3.35;;;1.92;;
48651;SDS011;34442;52.362;-1.302;2023-04-16T02:00:42;3.15;;;1.75;;
48651;SDS011;34442;52.362;-1.302;2023-04-16T02:03:07;3.55;;;1.80;;
48651;SDS011;34442;52.362;-1.302;2023-04-16T02:05:33;2.47;;;1.48;;
48651;SDS011;34442;52.362;-1.302;2023-04-16T02:07:59;3.20;;;1.98;;
48651;SDS011;34442;52.362;-1.302;2023-04-16T02:10:24;3.35;;;1.80;;
48651;SDS011;34442;52.362;-1.302;2023-04-16T02:12:50;2.97;;;1.70;;
48651;SDS011;34442;52.362;-1.302;2023-04-16T02:15:15;3.05;;;1.70;;
48651;SDS011;34442;52.362;-1.302;2023-04-16T02:17:44;2.58;;;1.50;;
48651;SDS011;34442;52.362;-1.302;2023-04-16T02:20:10;2.78;;;1.55;;
48651;SDS011;34442;52.362;-1.302;2023-04-16T02:22:36;3.25;;;1.70;;
48651;SDS011;34442;52.362;-1.302;2023-04-16T02:25:01;3.35;;;1.90;;
48651;SDS011;34442;52.362;-1.302;2023-04-16T02:27:27;2.55;;;1.42;;
48651;SDS011;34442;52.362;-1.302;2023-04-16T02:29:52;2.92;;;1.60;;
48651;SDS011;34442;52.362;-1.302;2023-04-16T02:32:18;3.15;;;1.65;;
48651;SDS011;34442;52.362;-1.302;2023-04-16T02:34:43;1.70;;;1.20;;
48651;SDS011;34442;52.362;-1.302;2023-04-16T02:37:09;1.48;;;1.25;;
48651;SDS011;34442;52.362;-1.302;2023-04-16T02:39:34;3.45;;;1.60;;
48651;SDS011;34442;52.362;-1.302;2023-04-16T02:42:00;3.05;;;1.67;;
48651;SDS011;34442;52.362;-1.302;2023-04-16T02:44:26;4.18;;;1.60;;
48651;SDS011;34442;52.362;-1.302;2023-04-16T02:46:52;2.92;;;1.52;;
48651;SDS011;34442;52.362;-1.302;2023-04-16T02:49:17;2.65;;;1.40;;
48651;SDS011;34442;52.362;-1.302;2023-04-16T02:51:43;2.08;;;1.30;;
48651;SDS011;34442;52.362;-1.302;2023-04-16T02:54:08;3.33;;;1.70;;
48651;SDS011;34442;52.362;-1.302;2023-04-16T02:56:33;2.88;;;1.50;;
48651;SDS011;34442;52.362;-1.302;2023-04-16T02:58:59;2.58;;;1.60;;
48651;SDS011;34442;52.362;-1.302;2023-04-16T03:01:24;3.05;;;1.85;;
48651;SDS011;34442;52.362;-1.302;2023-04-16T03:03:50;2.30;;;1.42;;
48651;SDS011;34442;52.362;-1.302;2023-04-16T03:06:15;3.53;;;1.70;;
48651;SDS011;34442;52.362;-1.302;2023-04-16T03:08:41;3.33;;;1.63;;
48651;SDS011;34442;52.362;-1.302;2023-04-16T03:11:06;1.77;;;1.25;;
48651;SDS011;34442;52.362;-1.302;2023-04-16T03:13:31;3.45;;;1.75;;
48651;SDS011;34442;52.362;-1.302;2023-04-16T03:15:57;3.38;;;1.83;;
48651;SDS011;34442;52.362;-1.302;2023-04-16T03:18:24;3.33;;;1.60;;
48651;SDS011;34442;52.362;-1.302;2023-04-16T03:20:50;3.88;;;2.15;;
48651;SDS011;34442;52.362;-1.302;2023-04-16T03:23:16;3.22;;;1.80;;
48651;SDS011;34442;52.362;-1.302;2023-04-16T03:25:41;3.83;;;2.20;;
48651;SDS011;34442;52.362;-1.302;2023-04-16T03:28:10;3.88;;;1.98;;
48651;SDS011;34442;52.362;-1.302;2023-04-16T03:30:36;4.10;;;2.13;;
48651;SDS011;34442;52.362;-1.302;2023-04-16T03:33:01;3.35;;;2.08;;
48651;SDS011;34442;52.362;-1.302;2023-04-16T03:35:27;3.22;;;1.80;;
48651;SDS011;34442;52.362;-1.302;2023-04-16T03:37:52;3.25;;;1.80;;
48651;SDS011;34442;52.362;-1.302;2023-04-16T03:40:18;3.15;;;1.80;;
48651;SDS011;34442;52.362;-1.302;2023-04-16T03:42:43;3.25;;;1.90;;
48651;SDS011;34442;52.362;-1.302;2023-04-16T03:45:09;4.13;;;2.20;;
48651;SDS011;34442;52.362;-1.302;2023-04-16T03:47:34;2.90;;;1.90;;
48651;SDS011;34442;52.362;-1.302;2023-04-16T03:50:00;3.75;;;1.90;;
48651;SDS011;34442;52.362;-1.302;2023-04-16T03:52:25;4.13;;;2.78;;
48651;SDS011;34442;52.362;-1.302;2023-04-16T03:54:52;5.00;;;2.65;;
48651;SDS011;34442;52.362;-1.302;2023-04-16T03:57:19;3.50;;;1.90;;
48651;SDS011;34442;52.362;-1.302;2023-04-16T03:59:45;4.18;;;2.47;;
48651;SDS011;34442;52.362;-1.302;2023-04-16T04:02:10;3.53;;;1.88;;
48651;SDS011;34442;52.362;-1.302;2023-04-16T04:04:36;2.85;;;1.85;;
48651;SDS011;34442;52.362;-1.302;2023-04-16T04:07:01;2.83;;;1.77;;
48651;SDS011;34442;52.362;-1.302;2023-04-16T04:09:26;2.55;;;1.70;;
48651;SDS011;34442;52.362;-1.302;2023-04-16T04:11:52;3.17;;;1.83;;
48651;SDS011;34442;52.362;-1.302;2023-04-16T04:14:17;3.65;;;1.83;;
48651;SDS011;34442;52.362;-1.302;2023-04-16T04:16:42;2.88;;;1.80;;
48651;SDS011;34442;52.362;-1.302;2023-04-16T04:19:08;3.22;;;1.85;;
48651;SDS011;34442;52.362;-1.302;2023-04-16T04:21:34;3.13;;;1.70;;
48651;SDS011;34442;52.362;-1.302;2023-04-16T04:23:59;4.43;;;3.03;;
48651;SDS011;34442;52.362;-1.302;2023-04-16T04:26:24;4.07;;;2.03;;
48651;SDS011;34442;52.362;-1.302;2023-04-16T04:28:53;4.10;;;2.22;;
48651;SDS011;34442;52.362;-1.302;2023-04-16T04:31:18;3.10;;;1.65;;
48651;SDS011;34442;52.362;-1.302;2023-04-16T04:33:43;3.50;;;1.75;;
48651;SDS011;34442;52.362;-1.302;2023-04-16T04:36:09;2.55;;;1.67;;
48651;SDS011;34442;52.362;-1.302;2023-04-16T04:38:35;3.40;;;1.85;;
48651;SDS011;34442;52.362;-1.302;2023-04-16T04:41:00;3.55;;;1.50;;
48651;SDS011;34442;52.362;-1.302;2023-04-16T04:43:28;2.58;;;1.50;;
48651;SDS011;34442;52.362;-1.302;2023-04-16T04:45:53;2.53;;;1.35;;
48651;SDS011;34442;52.362;-1.302;2023-04-16T04:48:19;2.58;;;1.30;;
48651;SDS011;34442;52.362;-1.302;2023-04-16T04:50:50;2.95;;;1.45;;
48651;SDS011;34442;52.362;-1.302;2023-04-16T04:53:15;2.58;;;1.45;;
48651;SDS011;34442;52.362;-1.302;2023-04-16T04:55:40;2.50;;;1.27;;
48651;SDS011;34442;52.362;-1.302;2023-04-16T04:58:06;3.38;;;1.42;;
48651;SDS011;34442;52.362;-1.302;2023-04-16T05:00:32;2.85;;;1.20;;
48651;SDS011;34442;52.362;-1.302;2023-04-16T05:03:03;2.42;;;1.52;;
48651;SDS011;34442;52.362;-1.302;2023-04-16T05:05:30;2.85;;;1.38;;
48651;SDS011;34442;52.362;-1.302;2023-04-16T05:07:55;2.22;;;1.33;;
48651;SDS011;34442;52.362;-1.302;2023-04-16T05:10:20;3.50;;;1.52;;
48651;SDS011;34442;52.362;-1.302;2023-04-16T05:12:46;2.28;;;1.35;;
48651;SDS011;34442;52.362;-1.302;2023-04-16T05:15:15;2.45;;;1.40;;
48651;SDS011;34442;52.362;-1.302;2023-04-16T05:17:40;2.85;;;1.50;;
48651;SDS011;34442;52.362;-1.302;2023-04-16T05:20:06;2.58;;;1.33;;
48651;SDS011;34442;52.362;-1.302;2023-04-16T05:22:35;2.97;;;1.70;;
48651;SDS011;34442;52.362;-1.302;2023-04-16T05:25:00;2.65;;;1.70;;
48651;SDS011;34442;52.362;-1.302;2023-04-16T05:27:26;3.03;;;1.60;;
48651;SDS011;34442;52.362;-1.302;2023-04-16T05:29:51;2.88;;;1.52;;
48651;SDS011;34442;52.362;-1.302;2023-04-16T05:32:17;2.67;;;1.50;;
48651;SDS011;34442;52.362;-1.302;2023-04-16T05:34:42;2.72;;;1.75;;
48651;SDS011;34442;52.362;-1.302;2023-04-16T05:37:08;2.92;;;1.63;;
48651;SDS011;34442;52.362;-1.302;2023-04-16T05:39:33;2.55;;;1.52;;
48651;SDS011;34442;52.362;-1.302;2023-04-16T05:41:59;3.00;;;1.48;;
48651;SDS011;34442;52.362;-1.302;2023-04-16T05:44:24;3.05;;;1.60;;
48651;SDS011;34442;52.362;-1.302;2023-04-16T05:46:50;2.17;;;1.30;;
48651;SDS011;34442;52.362;-1.302;2023-04-16T05:49:15;3.10;;;1.60;;
48651;SDS011;34442;52.362;-1.302;2023-04-16T05:51:42;2.80;;;1.67;;
48651;SDS011;34442;52.362;-1.302;2023-04-16T05:54:08;2.75;;;1.50;;
48651;SDS011;34442;52.362;-1.302;2023-04-16T05:56:33;2.47;;;1.48;;
48651;SDS011;34442;52.362;-1.302;2023-04-16T05:58:59;1.98;;;1.23;;
48651;SDS011;34442;52.362;-1.302;2023-04-16T06:01:24;2.60;;;1.52;;
48651;SDS011;34442;52.362;-1.302;2023-04-16T06:03:50;2.17;;;1.23;;
48651;SDS011;34442;52.362;-1.302;2023-04-16T06:06:15;2.45;;;1.33;;
48651;SDS011;34442;52.362;-1.302;2023-04-16T06:08:41;2.45;;;1.33;;
48651;SDS011;34442;52.362;-1.302;2023-04-16T06:11:06;2.65;;;1.52;;
48651;SDS011;34442;52.362;-1.302;2023-04-16T06:13:31;2.33;;;1.40;;
48651;SDS011;34442;52.362;-1.302;2023-04-16T06:15:57;2.97;;;1.35;;
48651;SDS011;34442;52.362;-1.302;2023-04-16T06:18:22;2.35;;;1.30;;
48651;SDS011;34442;52.362;-1.302;2023-04-16T06:20:48;2.78;;;1.42;;
48651;SDS011;34442;52.362;-1.302;2023-04-16T06:23:13;1.58;;;1.08;;
48651;SDS011;34442;52.362;-1.302;2023-04-16T06:25:39;1.73;;;0.90;;
48651;SDS011;34442;52.362;-1.302;2023-04-16T06:28:05;2.17;;;1.02;;
48651;SDS011;34442;52.362;-1.302;2023-04-16T06:30:30;2.10;;;1.02;;
48651;SDS011;34442;52.362;-1.302;2023-04-16T06:32:56;1.15;;;1.00;;
48651;SDS011;34442;52.362;-1.302;2023-04-16T06:35:22;2.08;;;1.25;;
48651;SDS011;34442;52.362;-1.302;2023-04-16T06:37:47;1.85;;;1.17;;
48651;SDS011;34442;52.362;-1.302;2023-04-16T06:40:13;1.50;;;1.13;;
48651;SDS011;34442;52.362;-1.302;2023-04-16T06:42:38;1.88;;;0.90;;
48651;SDS011;34442;52.362;-1.302;2023-04-16T06:45:04;2.13;;;1.25;;
48651;SDS011;34442;52.362;-1.302;2023-04-16T06:47:30;0.95;;;0.85;;
48651;SDS011;34442;52.362;-1.302;2023-04-16T06:49:56;1.65;;;0.90;;
48651;SDS011;34442;52.362;-1.302;2023-04-16T06:52:21;1.48;;;0.90;;
48651;SDS011;34442;52.362;-1.302;2023-04-16T06:54:47;1.42;;;1.00;;
48651;SDS011;34442;52.362;-1.302;2023-04-16T06:57:12;2.95;;;1.25;;
48651;SDS011;34442;52.362;-1.302;2023-04-16T06:59:38;1.40;;;0.90;;
48651;SDS011;34442;52.362;-1.302;2023-04-16T07:02:03;1.02;;;0.90;;
48651;SDS011;34442;52.362;-1.302;2023-04-16T07:04:29;1.48;;;1.00;;
48651;SDS011;34442;52.362;-1.302;2023-04-16T07:06:54;0.98;;;0.75;;
48651;SDS011;34442;52.362;-1.302;2023-04-16T07:09:19;1.77;;;1.00;;
48651;SDS011;34442;52.362;-1.302;2023-04-16T07:11:45;0.68;;;0.68;;
48651;SDS011;34442;52.362;-1.302;2023-04-16T07:14:11;1.23;;;1.00;;
48651;SDS011;34442;52.362;-1.302;2023-04-16T07:16:36;1.40;;;0.80;;
48651;SDS011;34442;52.362;-1.302;2023-04-16T07:19:02;1.65;;;1.02;;
48651;SDS011;34442;52.362;-1.302;2023-04-16T07:21:27;0.77;;;0.75;;
48651;SDS011;34442;52.362;-1.302;2023-04-16T07:23:53;1.60;;;0.98;;
48651;SDS011;34442;52.362;-1.302;2023-04-16T07:26:19;1.10;;;0.82;;
48651;SDS011;34442;52.362;-1.302;2023-04-16T07:28:44;1.10;;;0.73;;
48651;SDS011;34442;52.362;-1.302;2023-04-16T07:31:10;0.75;;;0.70;;
48651;SDS011;34442;52.362;-1.302;2023-04-16T07:33:35;1.08;;;0.77;;
48651;SDS011;34442;52.362;-1.302;2023-04-16T07:36:01;0.95;;;0.80;;
48651;SDS011;34442;52.362;-1.302;2023-04-16T07:38:26;1.00;;;0.80;;
48651;SDS011;34442;52.362;-1.302;2023-04-16T07:40:52;1.65;;;0.95;;
48651;SDS011;34442;52.362;-1.302;2023-04-16T07:43:17;2.03;;;0.80;;
48651;SDS011;34442;52.362;-1.302;2023-04-16T07:45:42;1.77;;;0.88;;
48651;SDS011;34442;52.362;-1.302;2023-04-16T07:48:08;1.27;;;0.93;;
48651;SDS011;34442;52.362;-1.302;2023-04-16T07:50:33;1.52;;;0.75;;
48651;SDS011;34442;52.362;-1.302;2023-04-16T07:52:59;0.70;;;0.65;;
48651;SDS011;34442;52.362;-1.302;2023-04-16T07:55:24;1.23;;;0.80;;
48651;SDS011;34442;52.362;-1.302;2023-04-16T07:57:50;2.00;;;1.00;;
48651;SDS011;34442;52.362;-1.302;2023-04-16T08:00:15;2.47;;;1.33;;
48651;SDS011;34442;52.362;-1.302;2023-04-16T08:02:41;1.77;;;1.00;;
48651;SDS011;34442;52.362;-1.302;2023-04-16T08:05:07;2.65;;;1.40;;
48651;SDS011;34442;52.362;-1.302;2023-04-16T08:07:33;3.40;;;1.40;;
48651;SDS011;34442;52.362;-1.302;2023-04-16T08:09:58;1.75;;;1.00;;
48651;SDS011;34442;52.362;-1.302;2023-04-16T08:12:24;2.58;;;1.30;;
48651;SDS011;34442;52.362;-1.302;2023-04-16T08:14:49;2.63;;;1.20;;
48651;SDS011;34442;52.362;-1.302;2023-04-16T08:17:15;2.38;;;1.25;;
48651;SDS011;34442;52.362;-1.302;2023-04-16T08:19:41;2.55;;;1.20;;
48651;SDS011;34442;52.362;-1.302;2023-04-16T08:22:07;2.42;;;1.20;;
48651;SDS011;34442;52.362;-1.302;2023-04-16T08:24:33;2.35;;;1.15;;
48651;SDS011;34442;52.362;-1.302;2023-04-16T08:26:58;1.23;;;0.88;;
48651;SDS011;34442;52.362;-1.302;2023-04-16T08:29:24;3.13;;;1.00;;
48651;SDS011;34442;52.362;-1.302;2023-04-16T08:31:50;1.45;;;0.90;;
48651;SDS011;34442;52.362;-1.302;2023-04-16T08:34:17;1.42;;;0.80;;
48651;SDS011;34442;52.362;-1.302;2023-04-16T08:36:42;1.92;;;1.08;;
48651;SDS011;34442;52.362;-1.302;2023-04-16T08:39:08;1.92;;;0.98;;
48651;SDS011;34442;52.362;-1.302;2023-04-16T08:41:33;0.82;;;0.80;;
48651;SDS011;34442;52.362;-1.302;2023-04-16T08:44:03;2.03;;;0.80;;
48651;SDS011;34442;52.362;-1.302;2023-04-16T08:46:34;1.02;;;0.90;;
48651;SDS011;34442;52.362;-1.302;2023-04-16T08:49:01;1.58;;;0.95;;
48651;SDS011;34442;52.362;-1.302;2023-04-16T08:51:29;2.20;;;0.80;;
48651;SDS011;34442;52.362;-1.302;2023-04-16T08:54:02;1.17;;;0.80;;
48651;SDS011;34442;52.362;-1.302;2023-04-16T08:56:30;0.82;;;0.70;;
48651;SDS011;34442;52.362;-1.302;2023-04-16T08:58:56;0.70;;;0.70;;
48651;SDS011;34442;52.362;-1.302;2023-04-16T09:01:23;1.30;;;0.65;;
48651;SDS011;34442;52.362;-1.302;2023-04-16T09:03:50;0.60;;;0.60;;
48651;SDS011;34442;52.362;-1.302;2023-04-16T09:06:17;0.45;;;0.40;;
48651;SDS011;34442;52.362;-1.302;2023-04-16T09:08:43;0.68;;;0.65;;
48651;SDS011;34442;52.362;-1.302;2023-04-16T09:11:10;0.40;;;0.40;;
48651;SDS011;34442;52.362;-1.302;2023-04-16T09:13:37;0.82;;;0.60;;
48651;SDS011;34442;52.362;-1.302;2023-04-16T09:16:03;1.25;;;0.70;;
48651;SDS011;34442;52.362;-1.302;2023-04-16T09:18:31;0.40;;;0.40;;
48651;SDS011;34442;52.362;-1.302;2023-04-16T09:20:56;0.55;;;0.55;;
48651;SDS011;34442;52.362;-1.302;2023-04-16T09:23:22;0.65;;;0.57;;
48651;SDS011;34442;52.362;-1.302;2023-04-16T09:25:48;0.93;;;0.63;;
48651;SDS011;34442;52.362;-1.302;2023-04-16T09:31:09;0.52;;;0.50;;
48651;SDS011;34442;52.362;-1.302;2023-04-16T09:33:39;0.70;;;0.50;;
48651;SDS011;34442;52.362;-1.302;2023-04-16T09:36:05;0.35;;;0.35;;
48651;SDS011;34442;52.362;-1.302;2023-04-16T09:38:49;0.52;;;0.50;;
48651;SDS011;34442;52.362;-1.302;2023-04-16T09:41:15;0.35;;;0.35;;
48651;SDS011;34442;52.362;-1.302;2023-04-16T09:43:57;0.63;;;0.50;;
48651;SDS011;34442;52.362;-1.302;2023-04-16T09:46:35;0.45;;;0.45;;
48651;SDS011;34442;52.362;-1.302;2023-04-16T09:49:07;0.60;;;0.57;;
48651;SDS011;34442;52.362;-1.302;2023-04-16T09:51:37;0.63;;;0.60;;
48651;SDS011;34442;52.362;-1.302;2023-04-16T09:54:05;0.50;;;0.50;;
48651;SDS011;34442;52.362;-1.302;2023-04-16T09:56:31;1.75;;;0.63;;
48651;SDS011;34442;52.362;-1.302;2023-04-16T09:58:59;0.93;;;0.70;;
48651;SDS011;34442;52.362;-1.302;2023-04-16T10:01:25;1.17;;;0.60;;
48651;SDS011;34442;52.362;-1.302;2023-04-16T10:03:52;0.63;;;0.50;;
48651;SDS011;34442;52.362;-1.302;2023-04-16T10:06:19;1.85;;;0.90;;
48651;SDS011;34442;52.362;-1.302;2023-04-16T10:08:46;0.60;;;0.35;;
48651;SDS011;34442;52.362;-1.302;2023-04-16T10:11:12;1.05;;;0.50;;
48651;SDS011;34442;52.362;-1.302;2023-04-16T10:13:38;0.85;;;0.60;;
48651;SDS011;34442;52.362;-1.302;2023-04-16T10:16:04;0.50;;;0.50;;
48651;SDS011;34442;52.362;-1.302;2023-04-16T10:18:30;0.77;;;0.60;;
48651;SDS011;34442;52.362;-1.302;2023-04-16T10:20:59;0.75;;;0.60;;
48651;SDS011;34442;52.362;-1.302;2023-04-16T10:23:26;1.08;;;0.68;;
48651;SDS011;34442;52.362;-1.302;2023-04-16T10:25:52;0.40;;;0.40;;
48651;SDS011;34442;52.362;-1.302;2023-04-16T10:28:19;0.95;;;0.47;;
48651;SDS011;34442;52.362;-1.302;2023-04-16T10:30:46;0.47;;;0.47;;
48651;SDS011;34442;52.362;-1.302;2023-04-16T10:33:19;0.55;;;0.50;;
48651;SDS011;34442;52.362;-1.302;2023-04-16T10:36:11;0.52;;;0.52;;
48651;SDS011;34442;52.362;-1.302;2023-04-16T10:38:49;0.75;;;0.60;;
48651;SDS011;34442;52.362;-1.302;2023-04-16T10:41:18;0.50;;;0.50;;
48651;SDS011;34442;52.362;-1.302;2023-04-16T10:43:45;0.47;;;0.47;;
48651;SDS011;34442;52.362;-1.302;2023-04-16T10:46:18;0.38;;;0.38;;
48651;SDS011;34442;52.362;-1.302;2023-04-16T10:48:43;1.13;;;0.60;;
48651;SDS011;34442;52.362;-1.302;2023-04-16T10:51:21;2.15;;;0.77;;
48651;SDS011;34442;52.362;-1.302;2023-04-16T10:53:48;1.17;;;0.50;;
48651;SDS011;34442;52.362;-1.302;2023-04-16T10:56:14;0.43;;;0.35;;
48651;SDS011;34442;52.362;-1.302;2023-04-16T10:58:49;1.13;;;0.75;;
48651;SDS011;34442;52.362;-1.302;2023-04-16T11:01:14;1.20;;;0.63;;
48651;SDS011;34442;52.362;-1.302;2023-04-16T11:03:41;0.40;;;0.40;;
48651;SDS011;34442;52.362;-1.302;2023-04-16T11:06:17;0.63;;;0.47;;
48651;SDS011;34442;52.362;-1.302;2023-04-16T11:08:52;0.95;;;0.55;;
48651;SDS011;34442;52.362;-1.302;2023-04-16T11:11:18;0.50;;;0.50;;
48651;SDS011;34442;52.362;-1.302;2023-04-16T11:13:44;1.17;;;0.63;;
48651;SDS011;34442;52.362;-1.302;2023-04-16T11:16:11;0.73;;;0.50;;
48651;SDS011;34442;52.362;-1.302;2023-04-16T11:18:38;0.93;;;0.60;;
48651;SDS011;34442;52.362;-1.302;2023-04-16T11:21:07;0.45;;;0.43;;
48651;SDS011;34442;52.362;-1.302;2023-04-16T11:23:50;1.05;;;0.50;;
48651;SDS011;34442;52.362;-1.302;2023-04-16T11:26:23;0.68;;;0.52;;
48651;SDS011;34442;52.362;-1.302;2023-04-16T11:28:50;0.55;;;0.55;;
48651;SDS011;34442;52.362;-1.302;2023-04-16T11:31:19;0.50;;;0.50;;
48651;SDS011;34442;52.362;-1.302;2023-04-16T11:33:48;0.68;;;0.52;;
48651;SDS011;34442;52.362;-1.302;2023-04-16T11:36:14;0.68;;;0.60;;
48651;SDS011;34442;52.362;-1.302;2023-04-16T11:38:40;1.58;;;0.80;;
48651;SDS011;34442;52.362;-1.302;2023-04-16T11:41:07;0.47;;;0.47;;
48651;SDS011;34442;52.362;-1.302;2023-04-16T11:43:35;1.77;;;0.70;;
48651;SDS011;34442;52.362;-1.302;2023-04-16T11:46:02;1.67;;;0.70;;
48651;SDS011;34442;52.362;-1.302;2023-04-16T11:49:02;0.85;;;0.60;;
48651;SDS011;34442;52.362;-1.302;2023-04-16T11:51:21;0.50;;;0.50;;
48651;SDS011;34442;52.362;-1.302;2023-04-16T11:53:47;1.98;;;0.68;;
48651;SDS011;34442;52.362;-1.302;2023-04-16T11:56:15;0.60;;;0.50;;
48651;SDS011;34442;52.362;-1.302;2023-04-16T11:59:09;1.10;;;0.60;;
48651;SDS011;34442;52.362;-1.302;2023-04-16T12:01:45;1.35;;;0.70;;
48651;SDS011;34442;52.362;-1.302;2023-04-16T12:04:12;0.80;;;0.60;;
48651;SDS011;34442;52.362;-1.302;2023-04-16T12:06:39;1.20;;;0.60;;
48651;SDS011;34442;52.362;-1.302;2023-04-16T12:09:24;0.70;;;0.60;;
48651;SDS011;34442;52.362;-1.302;2023-04-16T12:11:51;1.35;;;0.80;;
48651;SDS011;34442;52.362;-1.302;2023-04-16T12:14:17;1.10;;;0.75;;
48651;SDS011;34442;52.362;-1.302;2023-04-16T12:16:43;1.23;;;0.68;;
48651;SDS011;34442;52.362;-1.302;2023-04-16T12:19:09;0.88;;;0.60;;
48651;SDS011;34442;52.362;-1.302;2023-04-16T12:21:37;1.17;;;0.65;;
48651;SDS011;34442;52.362;-1.302;2023-04-16T12:24:03;0.98;;;0.75;;
48651;SDS011;34442;52.362;-1.302;2023-04-16T12:26:40;1.38;;;0.80;;
48651;SDS011;34442;52.362;-1.302;2023-04-16T12:31:40;1.10;;;0.90;;
48651;SDS011;34442;52.362;-1.302;2023-04-16T12:34:05;1.25;;;0.80;;
48651;SDS011;34442;52.362;-1.302;2023-04-16T12:36:31;2.45;;;0.95;;
48651;SDS011;34442;52.362;-1.302;2023-04-16T12:38:57;1.42;;;0.88;;
48651;SDS011;34442;52.362;-1.302;2023-04-16T12:41:22;1.40;;;0.80;;
48651;SDS011;34442;52.362;-1.302;2023-04-16T12:43:47;1.90;;;1.02;;
48651;SDS011;34442;52.362;-1.302;2023-04-16T12:46:13;0.90;;;0.73;;
48651;SDS011;34442;52.362;-1.302;2023-04-16T12:48:38;1.55;;;0.98;;
48651;SDS011;34442;52.362;-1.302;2023-04-16T12:51:04;1.40;;;0.90;;
48651;SDS011;34442;52.362;-1.302;2023-04-16T12:53:30;0.85;;;0.80;;
48651;SDS011;34442;52.362;-1.302;2023-04-16T12:55:59;0.75;;;0.60;;
48651;SDS011;34442;52.362;-1.302;2023-04-16T12:58:24;1.75;;;0.85;;
48651;SDS011;34442;52.362;-1.302;2023-04-16T13:00:50;0.88;;;0.57;;
48651;SDS011;34442;52.362;-1.302;2023-04-16T13:03:15;2.15;;;0.80;;
48651;SDS011;34442;52.362;-1.302;2023-04-16T13:05:41;0.63;;;0.55;;
48651;SDS011;34442;52.362;-1.302;2023-04-16T13:08:06;1.23;;;0.70;;
48651;SDS011;34442;52.362;-1.302;2023-04-16T13:10:32;0.88;;;0.60;;
48651;SDS011;34442;52.362;-1.302;2023-04-16T13:12:57;1.33;;;0.80;;
48651;SDS011;34442;52.362;-1.302;2023-04-16T13:15:23;2.33;;;1.10;;
48651;SDS011;34442;52.362;-1.302;2023-04-16T13:17:48;1.58;;;1.00;;
48651;SDS011;34442;52.362;-1.302;2023-04-16T13:20:14;1.45;;;0.82;;
48651;SDS011;34442;52.362;-1.302;2023-04-16T13:22:42;2.10;;;1.00;;
48651;SDS011;34442;52.362;-1.302;2023-04-16T13:25:07;1.63;;;0.90;;
48651;SDS011;34442;52.362;-1.302;2023-04-16T13:27:33;2.30;;;0.90;;
48651;SDS011;34442;52.362;-1.302;2023-04-16T13:29:59;1.60;;;0.80;;
48651;SDS011;34442;52.362;-1.302;2023-04-16T13:32:25;0.95;;;0.75;;
48651;SDS011;34442;52.362;-1.302;2023-04-16T13:34:50;1.45;;;0.60;;
48651;SDS011;34442;52.362;-1.302;2023-04-16T13:37:16;1.27;;;0.70;;
48651;SDS011;34442;52.362;-1.302;2023-04-16T13:39:41;0.93;;;0.65;;
48651;SDS011;34442;52.362;-1.302;2023-04-16T13:42:06;0.75;;;0.68;;
48651;SDS011;34442;52.362;-1.302;2023-04-16T13:44:32;0.98;;;0.70;;
48651;SDS011;34442;52.362;-1.302;2023-04-16T13:46:57;1.15;;;0.70;;
48651;SDS011;34442;52.362;-1.302;2023-04-16T13:49:23;2.80;;;0.70;;
48651;SDS011;34442;52.362;-1.302;2023-04-16T13:51:48;0.47;;;0.47;;
48651;SDS011;34442;52.362;-1.302;2023-04-16T13:54:17;0.60;;;0.60;;
48651;SDS011;34442;52.362;-1.302;2023-04-16T13:56:42;0.80;;;0.65;;
48651;SDS011;34442;52.362;-1.302;2023-04-16T13:59:08;1.77;;;0.90;;
48651;SDS011;34442;52.362;-1.302;2023-04-16T14:01:33;1.08;;;0.63;;
48651;SDS011;34442;52.362;-1.302;2023-04-16T14:03:59;1.60;;;0.73;;
48651;SDS011;34442;52.362;-1.302;2023-04-16T14:06:30;0.68;;;0.60;;
48651;SDS011;34442;52.362;-1.302;2023-04-16T14:08:55;0.93;;;0.77;;
48651;SDS011;34442;52.362;-1.302;2023-04-16T14:11:21;2.88;;;0.75;;
48651;SDS011;34442;52.362;-1.302;2023-04-16T14:13:47;0.50;;;0.50;;
48651;SDS011;34442;52.362;-1.302;2023-04-16T14:16:13;0.80;;;0.70;;
48651;SDS011;34442;52.362;-1.302;2023-04-16T14:18:38;3.03;;;1.20;;
48651;SDS011;34442;52.362;-1.302;2023-04-16T14:21:06;1.23;;;0.82;;
48651;SDS011;34442;52.362;-1.302;2023-04-16T14:23:32;1.58;;;0.90;;
48651;SDS011;34442;52.362;-1.302;2023-04-16T14:25:57;2.15;;;0.77;;
48651;SDS011;34442;52.362;-1.302;2023-04-16T14:28:23;2.30;;;0.80;;
48651;SDS011;34442;52.362;-1.302;2023-04-16T14:30:48;0.82;;;0.60;;
48651;SDS011;34442;52.362;-1.302;2023-04-16T14:33:14;0.80;;;0.60;;
48651;SDS011;34442;52.362;-1.302;2023-04-16T14:35:39;1.35;;;0.70;;